Airfield :
LOGIN :

Register | Disclaimer

   EN    FR    IT 

 










Legend :    VFR   Marginal VFR   IFR   Intensive IFR   Very Intensive IFR
Visi :
Ceiling :
>= 8 km
>= 3000ft
5 to 8 km
1000 to 3000 ft
1500m to 5 km
500 to 1000 ft
800 to 1500m
200 to 500 ft
< 800m
< 200 ft
Symbols :   Thunderstorms  Fog  Heavy snow  Heavy precipitations  Wind > 20 kt
SIGMETs :     Misc.  Thunderstorms  Icing  Turbulence  Mountain Waves  Volcanic Ashes







- Airport Elevation : 13 ft
- IATA code : SNR
- Download approach charts


LFRZ - St-Nazaire

CURRENT METAR :
  • 220400Z AUTO 31003KT 280V340 5000 0900 R25/0900U BCFG FEW003 09/08 Q1022 NOSIG

EXPIRED METARs :
  • 220330Z AUTO 31004KT 1900 1100 R25/1400U BR BKN003 09/08 Q1022 TEMPO 3000 BR BECMG NSC
  • 220300Z AUTO 31003KT 280V350 5000 1200 R25/1600D BR FEW003 09/08 Q1022 NOSIG
  • 220230Z AUTO VRB02KT 5000 1400 R25/1600U BR NSC 09/08 Q1022 NOSIG
  • 220200Z AUTO 30003KT 270V330 9999 3300 NSC 09/08 Q1022 TEMPO 3000 BR
  • 220130Z AUTO VRB03KT CAVOK 09/08 Q1022 TEMPO 3000 BR

TAF AMD TAF LFRZ
Valid from the 22 at 03:00 until the 23 at 00:00 UTC


220350Z 2203/2224 33005KT CAVOK
TEMPO 2203/2207 1000 BR BKN003
No reported NOTAMs for that airfield.



MET'MAP, your aeronautical weather chart ! - Copyright ORBIFLY December 2007 - Disclaimer

ORBIFLY MET'MAP TEAM :

Programming & Development : Alexandra Zaïnal
Concept & Development : Baudouin d'Aumeries
Co-Development & Prog : Marc-Olivier Méhu
Technical & hardware support : Manuel Goepfert

Contact : metmap@orbifly.com




SOURCES & CREDITS :

   NOAA